Time;durP1;ratioP1;P1;durP2;ratioP2;P2;SDS_P1;SDS_P2;PMS_P1;PMS_P2;Temp;Humidity;BMP_temperature;BMP_pressure;BME280_temperature;BME280_humidity;BME280_pressure;Samples;Min_cycle;Max_cycle;Signal;HPM_P1;HPM_P2
2022/10/03 00:02:15;;;;;;;8.90;3.60;;;10.60;99.90;;;;;;2612533;54;20029;31
2022/10/03 00:05:01;;;;;;;13.23;3.08;;;10.60;99.90;;;;;;2605720;54;20038;-76
2022/10/03 00:07:51;;;;;;;12.15;2.67;;;10.60;99.90;;;;;;2611274;54;20038;31
2022/10/03 00:10:27;;;;;;;9.17;2.57;;;10.80;99.90;;;;;;2606026;54;20030;31
2022/10/03 00:13:07;;;;;;;12.15;2.97;;;10.70;99.90;;;;;;2606511;54;20026;31
2022/10/03 00:15:45;;;;;;;11.38;3.15;;;10.60;99.90;;;;;;2610859;54;20027;31
2022/10/03 00:18:24;;;;;;;8.88;2.88;;;10.70;99.90;;;;;;2628932;46;20839;-81
2022/10/03 00:21:07;;;;;;;7.95;2.35;;;10.60;99.90;;;;;;2616196;54;20029;31
2022/10/03 00:23:38;;;;;;;9.75;2.80;;;10.70;99.90;;;;;;2612600;54;20026;31
2022/10/03 00:26:32;;;;;;;11.85;3.20;;;10.60;99.90;;;;;;2610096;54;21469;31
2022/10/03 00:29:20;;;;;;;9.40;2.53;;;10.60;99.90;;;;;;2626693;46;20034;31
2022/10/03 00:31:59;;;;;;;9.80;2.50;;;10.60;99.90;;;;;;2612560;54;20533;31
2022/10/03 00:34:45;;;;;;;10.80;2.47;;;10.60;99.90;;;;;;2606687;54;20027;-73
2022/10/03 00:37:26;;;;;;;17.15;2.65;;;10.60;99.90;;;;;;2613776;54;20022;31
2022/10/03 00:40:24;;;;;;;9.43;2.38;;;10.60;99.90;;;;;;2615091;54;20788;31
2022/10/03 00:43:16;;;;;;;9.30;2.80;;;10.60;99.90;;;;;;2607853;54;20923;31
2022/10/03 00:46:19;;;;;;;12.20;2.37;;;10.50;99.90;;;;;;2605351;54;20497;-74
2022/10/03 00:49:16;;;;;;;8.95;2.53;;;10.50;99.90;;;;;;2621384;46;20849;-73
2022/10/03 00:51:57;;;;;;;10.57;2.85;;;10.50;99.90;;;;;;2619091;46;20027;31
2022/10/03 00:54:45;;;;;;;10.13;2.50;;;10.40;99.90;;;;;;2610041;46;20022;-77
2022/10/03 00:57:17;;;;;;;10.68;2.20;;;10.40;99.90;;;;;;2612207;54;20030;31
2022/10/03 01:00:06;;;;;;;9.30;2.97;;;10.40;99.90;;;;;;2606374;54;20859;31
2022/10/03 01:02:50;;;;;;;13.32;3.03;;;10.30;99.90;;;;;;2606645;54;20026;31
2022/10/03 01:05:28;;;;;;;8.80;2.08;;;10.40;99.90;;;;;;2625128;46;20022;31
2022/10/03 01:08:23;;;;;;;15.50;3.00;;;10.30;99.90;;;;;;2613200;39;22267;31
2022/10/03 01:10:54;;;;;;;11.65;2.50;;;10.40;99.90;;;;;;2609607;54;20011;31
2022/10/03 01:13:33;;;;;;;11.27;2.10;;;10.40;99.90;;;;;;2606794;54;20030;31
2022/10/03 01:16:13;;;;;;;10.80;2.40;;;10.40;99.90;;;;;;2606042;54;20023;-76
2022/10/03 01:18:52;;;;;;;10.55;2.42;;;10.40;99.90;;;;;;2612556;54;20141;-77
2022/10/03 01:21:32;;;;;;;10.65;2.55;;;10.30;99.90;;;;;;2624326;46;20888;31
2022/10/03 01:24:34;;;;;;;18.15;4.05;;;10.30;99.90;;;;;;2625440;46;21285;31
2022/10/03 01:27:08;;;;;;;10.77;3.05;;;10.30;99.90;;;;;;2609304;54;20014;31
2022/10/03 01:32:40;;;;;;;;;;;10.30;99.90;;;;;;2604878;54;20046;31
2022/10/03 01:35:21;;;;;;;11.82;2.28;;;10.30;99.90;;;;;;2629354;46;19935;31
2022/10/03 01:37:54;;;;;;;7.85;2.65;;;10.30;99.90;;;;;;2609559;54;20025;31
2022/10/03 01:40:31;;;;;;;10.40;2.20;;;10.30;99.90;;;;;;2614464;54;20034;-74
2022/10/03 01:43:08;;;;;;;10.50;2.78;;;10.40;99.90;;;;;;2634801;46;20019;31
2022/10/03 01:45:47;;;;;;;11.60;2.38;;;10.40;99.90;;;;;;2605817;54;20026;31
2022/10/03 01:48:25;;;;;;;10.00;3.20;;;10.40;99.90;;;;;;2613216;54;20026;-75
2022/10/03 01:50:57;;;;;;;17.10;3.33;;;10.40;99.90;;;;;;2605022;54;20019;-81
2022/10/03 01:53:35;;;;;;;11.75;3.00;;;10.40;99.90;;;;;;2605523;54;20860;31
2022/10/03 01:56:12;;;;;;;8.35;2.60;;;10.40;99.90;;;;;;2624719;46;20028;31
2022/10/03 01:58:51;;;;;;;7.95;3.03;;;10.40;99.90;;;;;;2612080;54;20018;31
2022/10/03 02:01:30;;;;;;;16.20;3.42;;;10.50;99.90;;;;;;2619584;46;20022;-78
2022/10/03 02:04:05;;;;;;;11.95;2.20;;;10.50;99.90;;;;;;2609012;54;20037;31
2022/10/03 02:06:44;;;;;;;11.65;2.38;;;10.40;99.90;;;;;;2606786;54;20033;-76
2022/10/03 02:09:22;;;;;;;16.90;2.63;;;10.50;99.90;;;;;;2632081;46;20026;31
2022/10/03 02:12:04;;;;;;;15.80;2.43;;;10.50;99.90;;;;;;2613424;54;20031;31
2022/10/03 02:14:46;;;;;;;20.50;2.83;;;10.50;99.90;;;;;;2606589;54;20026;-77
2022/10/03 02:17:37;;;;;;;14.93;2.53;;;10.50;99.90;;;;;;2616998;54;20027;31
2022/10/03 02:20:12;;;;;;;14.43;2.50;;;10.50;99.90;;;;;;2624422;46;20046;-78
2022/10/03 02:22:47;;;;;;;10.45;2.78;;;10.50;99.90;;;;;;2614835;54;20019;31
2022/10/03 02:25:25;;;;;;;12.77;3.63;;;10.50;99.90;;;;;;2625448;46;20867;31
2022/10/03 02:28:20;;;;;;;12.98;2.88;;;10.50;99.90;;;;;;2615857;39;20646;31
2022/10/03 02:31:10;;;;;;;14.90;3.25;;;10.50;99.90;;;;;;2615171;54;20033;-77
2022/10/03 02:34:08;;;;;;;11.80;2.65;;;10.70;99.90;;;;;;2611111;54;20042;-78
2022/10/03 02:39:30;;;;;;;12.85;3.05;;;10.60;99.90;;;;;;2614500;54;20111;-75
2022/10/03 02:42:24;;;;;;;12.10;2.63;;;10.60;99.90;;;;;;2608559;54;20031;31
2022/10/03 02:45:37;;;;;;;10.13;3.58;;;10.60;99.90;;;;;;2612313;54;20406;-78
2022/10/03 02:48:32;;;;;;;15.93;3.55;;;10.60;99.90;;;;;;2625603;39;20613;31
2022/10/03 02:51:18;;;;;;;15.63;4.25;;;10.60;99.90;;;;;;2611993;54;20018;31
2022/10/03 02:54:23;;;;;;;14.45;4.68;;;10.60;99.90;;;;;;2629506;46;20022;31
2022/10/03 02:57:09;;;;;;;13.82;3.03;;;10.60;99.90;;;;;;2612200;54;20011;31
2022/10/03 03:00:17;;;;;;;12.00;3.40;;;10.60;99.90;;;;;;2627248;46;20766;31
2022/10/03 03:03:05;;;;;;;11.90;2.78;;;10.60;99.90;;;;;;2606577;54;21105;-77
2022/10/03 03:06:03;;;;;;;9.25;2.65;;;10.70;99.90;;;;;;2607008;54;20023;31
2022/10/03 03:08:55;;;;;;;8.77;2.63;;;10.60;99.90;;;;;;2607015;54;20030;-78
2022/10/03 03:12:05;;;;;;;14.80;4.13;;;10.50;99.90;;;;;;2613462;54;20027;31
2022/10/03 03:15:09;;;;;;;16.50;2.60;;;10.70;99.90;;;;;;2609071;54;20770;31
2022/10/03 03:17:49;;;;;;;11.57;2.42;;;10.70;99.90;;;;;;2709783;39;20362;31
2022/10/03 03:20:34;;;;;;;20.45;5.38;;;10.70;99.90;;;;;;2625407;46;21134;31
2022/10/03 03:23:43;;;;;;;10.68;2.90;;;10.70;99.90;;;;;;2608484;54;20963;-79
2022/10/03 03:26:26;;;;;;;10.95;2.40;;;10.70;99.90;;;;;;2614513;39;21275;31
2022/10/03 03:29:02;;;;;;;12.88;4.13;;;10.70;99.90;;;;;;2620753;46;20027;-77
2022/10/03 03:31:38;;;;;;;18.50;3.30;;;10.70;99.90;;;;;;2612213;54;20097;31
2022/10/03 03:34:16;;;;;;;14.40;2.58;;;10.70;99.90;;;;;;2605748;54;20081;31
2022/10/03 03:36:53;;;;;;;12.00;4.05;;;10.70;99.90;;;;;;2621796;46;20019;31
2022/10/03 03:39:37;;;;;;;16.05;3.50;;;10.70;99.90;;;;;;2605569;54;20049;31
2022/10/03 03:42:19;;;;;;;13.27;2.92;;;10.70;99.90;;;;;;2627130;46;20038;31
2022/10/03 03:45:08;;;;;;;13.77;3.35;;;10.70;99.90;;;;;;2608358;54;20030;31
2022/10/03 03:47:53;;;;;;;11.93;3.45;;;10.70;99.90;;;;;;2619083;54;20027;-74
2022/10/03 03:50:39;;;;;;;17.20;3.20;;;10.60;99.90;;;;;;2616879;54;20033;31
2022/10/03 03:53:19;;;;;;;;;;;10.70;99.90;;;;;;2611794;54;20034;31
2022/10/03 03:56:04;;;;;;;18.02;3.42;;;10.70;99.90;;;;;;2610100;54;19933;31
2022/10/03 03:58:38;;;;;;;13.63;2.28;;;10.70;99.90;;;;;;2615067;54;20908;31
2022/10/03 04:01:21;;;;;;;12.48;2.30;;;10.80;99.90;;;;;;2613525;46;20060;31
2022/10/03 04:03:59;;;;;;;11.35;2.60;;;10.60;99.90;;;;;;2607072;54;20030;31
2022/10/03 04:06:45;;;;;;;9.73;2.75;;;10.60;99.90;;;;;;2606704;54;20758;31
2022/10/03 04:09:37;;;;;;;14.68;2.90;;;10.70;99.90;;;;;;2612702;54;20019;-75
2022/10/03 04:12:16;;;;;;;15.25;2.40;;;10.80;99.90;;;;;;2624320;46;20853;31
2022/10/03 04:15:05;;;;;;;14.48;3.00;;;10.70;99.90;;;;;;2607670;54;20053;-80
2022/10/03 04:20:48;;;;;;;10.63;2.38;;;10.70;99.90;;;;;;2614559;54;20042;-79
2022/10/03 04:23:34;;;;;;;12.40;2.50;;;10.70;99.90;;;;;;2608904;54;20046;31
2022/10/03 04:26:14;;;;;;;13.17;2.40;;;10.70;99.90;;;;;;2608318;46;20027;-78
2022/10/03 04:29:18;;;;;;;14.70;3.00;;;10.70;99.90;;;;;;2634150;46;20042;31
2022/10/03 04:31:54;;;;;;;7.70;2.10;;;10.70;99.90;;;;;;2614447;54;20763;-77
2022/10/03 04:34:36;;;;;;;10.00;2.70;;;10.70;99.90;;;;;;2611972;54;21193;-77
2022/10/03 04:37:24;;;;;;;12.73;1.95;;;10.80;99.90;;;;;;2611919;54;20029;-78
2022/10/03 04:40:09;;;;;;;9.77;2.30;;;10.80;99.90;;;;;;2621545;54;20014;31
2022/10/03 04:42:47;;;;;;;16.10;3.20;;;10.70;99.90;;;;;;2613299;54;20027;31
2022/10/03 04:45:32;;;;;;;15.30;2.40;;;10.70;99.90;;;;;;2613352;54;20050;31
2022/10/03 04:48:11;;;;;;;10.82;2.55;;;10.70;99.90;;;;;;2615651;54;20030;-76
2022/10/03 04:50:46;;;;;;;10.75;2.85;;;10.70;99.90;;;;;;2609631;54;20048;31
2022/10/03 04:53:22;;;;;;;11.82;2.20;;;10.80;99.90;;;;;;2604934;54;20026;-85
2022/10/03 04:56:06;;;;;;;16.63;2.65;;;10.90;99.90;;;;;;2604883;54;20033;31
2022/10/03 04:58:45;;;;;;;17.10;2.65;;;10.70;99.90;;;;;;2603129;54;20037;31
2022/10/03 05:01:22;;;;;;;18.17;2.77;;;10.70;99.90;;;;;;2649322;39;20486;31
2022/10/03 05:03:56;;;;;;;13.77;2.40;;;10.80;99.90;;;;;;2612061;54;20022;31
2022/10/03 05:06:33;;;;;;;8.40;2.00;;;10.80;99.90;;;;;;2612547;47;20025;31
2022/10/03 05:09:17;;;;;;;7.60;2.45;;;10.70;99.90;;;;;;2606848;54;20828;31
2022/10/03 05:11:58;;;;;;;13.82;4.03;;;10.70;99.90;;;;;;2609430;54;20974;31
2022/10/03 05:14:41;;;;;;;11.60;2.83;;;10.70;99.90;;;;;;2606236;54;20895;31
2022/10/03 05:17:20;;;;;;;12.63;2.58;;;10.60;99.90;;;;;;2603929;54;20027;31
2022/10/03 05:19:54;;;;;;;17.73;4.15;;;10.50;99.90;;;;;;2720045;39;20489;31
2022/10/03 05:22:34;;;;;;;14.03;3.53;;;10.50;99.90;;;;;;2603650;54;20042;31
2022/10/03 05:25:18;;;;;;;17.60;4.00;;;10.50;99.90;;;;;;2702250;39;20442;31
2022/10/03 05:27:52;;;;;;;12.20;2.60;;;10.50;99.90;;;;;;2604892;54;20480;-76
2022/10/03 05:30:35;;;;;;;10.45;2.80;;;10.50;99.90;;;;;;2603744;54;20031;31
2022/10/03 05:33:17;;;;;;;14.30;3.28;;;10.50;99.90;;;;;;2603664;54;20113;31
2022/10/03 05:36:04;;;;;;;15.70;3.33;;;10.50;99.90;;;;;;2603392;54;20967;31
2022/10/03 05:39:09;;;;;;;19.52;3.60;;;10.50;99.90;;;;;;2603708;54;20912;31
2022/10/03 05:41:44;;;;;;;19.40;3.45;;;10.50;99.90;;;;;;2603567;54;20038;31
2022/10/03 05:44:42;;;;;;;19.23;3.47;;;10.50;99.90;;;;;;2603547;54;20030;31
2022/10/03 05:50:27;;;;;;;14.55;3.40;;;10.50;99.90;;;;;;2603337;54;20912;31
2022/10/03 05:53:10;;;;;;;13.52;3.55;;;10.50;99.90;;;;;;2603451;54;20863;31
2022/10/03 05:55:57;;;;;;;15.43;3.35;;;10.60;99.90;;;;;;2605317;54;20019;31
2022/10/03 05:58:54;;;;;;;13.05;2.65;;;10.50;99.90;;;;;;2622330;46;20033;31
2022/10/03 06:01:58;;;;;;;16.90;2.95;;;10.70;99.90;;;;;;2603572;54;20878;31
2022/10/03 06:04:52;;;;;;;13.90;2.50;;;10.70;99.90;;;;;;2603524;54;20165;31
2022/10/03 06:07:28;;;;;;;11.23;2.97;;;10.60;99.90;;;;;;2603826;54;21001;31
2022/10/03 06:10:20;;;;;;;16.33;3.03;;;10.70;99.90;;;;;;2603636;54;20851;31
2022/10/03 06:12:56;;;;;;;11.75;3.70;;;10.60;99.90;;;;;;2604037;54;20483;31
2022/10/03 06:15:55;;;;;;;13.03;2.83;;;10.60;99.90;;;;;;2622142;46;20878;31
2022/10/03 06:18:43;;;;;;;13.15;2.65;;;10.60;99.90;;;;;;2603674;54;21018;31
2022/10/03 06:24:13;;;;;;;9.15;2.75;;;10.60;99.90;;;;;;2611802;54;21281;31
2022/10/03 06:27:19;;;;;;;12.55;3.25;;;10.50;99.90;;;;;;2603760;54;20026;31
2022/10/03 06:30:20;;;;;;;14.18;3.35;;;10.60;99.90;;;;;;2621724;46;20817;31
2022/10/03 06:33:25;;;;;;;10.90;2.67;;;10.60;99.90;;;;;;2603798;54;20053;31
2022/10/03 06:36:27;;;;;;;12.52;3.20;;;10.60;99.90;;;;;;2605191;54;20018;31
2022/10/03 06:39:29;;;;;;;4.88;1.80;;;10.40;99.90;;;;;;2603259;54;20921;31
2022/10/03 06:42:33;;;;;;;11.20;3.30;;;10.60;99.90;;;;;;2603283;54;20117;31
2022/10/03 06:45:41;;;;;;;13.35;3.03;;;10.60;99.90;;;;;;2603318;54;20957;31
2022/10/03 06:48:43;;;;;;;9.93;2.75;;;10.70;99.90;;;;;;2603363;54;20023;31
2022/10/03 06:51:37;;;;;;;9.00;2.43;;;10.60;99.90;;;;;;2603247;54;20932;31
2022/10/03 06:54:26;;;;;;;8.80;2.80;;;10.60;99.90;;;;;;2603270;54;20023;31
2022/10/03 06:57:15;;;;;;;14.63;3.83;;;10.60;99.90;;;;;;2667091;39;20490;31
2022/10/03 07:00:14;;;;;;;9.87;2.87;;;10.60;99.90;;;;;;2603333;54;20034;31
2022/10/03 07:05:37;;;;;;;14.90;3.17;;;10.60;99.90;;;;;;2606792;46;20026;31
2022/10/03 07:10:52;;;;;;;11.55;2.78;;;10.70;99.90;;;;;;2603306;54;20150;31
2022/10/03 07:13:55;;;;;;;14.05;3.72;;;10.50;99.90;;;;;;2603190;54;20081;31
2022/10/03 07:16:56;;;;;;;7.55;2.55;;;10.70;99.90;;;;;;2603221;54;19938;31
2022/10/03 07:19:55;;;;;;;13.65;4.55;;;10.70;99.90;;;;;;2603199;54;20034;31
2022/10/03 07:22:50;;;;;;;7.97;2.37;;;10.70;99.90;;;;;;2621946;46;20156;31
2022/10/03 07:25:58;;;;;;;10.45;2.60;;;10.70;99.90;;;;;;2603397;54;20321;31
2022/10/03 07:28:58;;;;;;;7.35;2.30;;;10.80;99.90;;;;;;2603451;54;20055;31
2022/10/03 07:31:39;;;;;;;7.90;1.95;;;10.80;99.90;;;;;;2603340;54;20927;31
2022/10/03 07:34:43;;;;;;;10.90;2.10;;;10.90;99.90;;;;;;2603392;54;20854;31
2022/10/03 07:40:48;;;;;;;10.45;2.05;;;10.90;99.90;;;;;;2603478;54;20097;31
2022/10/03 07:43:46;;;;;;;7.45;2.40;;;10.80;99.90;;;;;;2603155;54;20833;31
2022/10/03 07:46:47;;;;;;;8.50;2.10;;;10.90;99.90;;;;;;2603196;54;20102;31
2022/10/03 07:49:41;;;;;;;7.95;2.10;;;10.90;99.90;;;;;;2603339;54;20797;31
2022/10/03 07:52:37;;;;;;;10.38;3.28;;;10.90;99.90;;;;;;2603272;54;20771;31
2022/10/03 07:55:23;;;;;;;8.30;3.13;;;11.00;99.90;;;;;;2603019;54;20125;31
2022/10/03 07:58:33;;;;;;;7.30;2.05;;;10.90;99.90;;;;;;2603388;54;20034;31
2022/10/03 08:01:21;;;;;;;8.57;2.17;;;10.90;99.90;;;;;;2603041;54;20904;31
2022/10/03 08:04:28;;;;;;;8.43;1.90;;;11.00;99.90;;;;;;2604465;46;20026;31
2022/10/03 08:07:11;;;;;;;4.47;1.80;;;11.00;99.90;;;;;;2603087;54;20034;31
2022/10/03 08:10:01;;;;;;;5.15;1.60;;;11.10;99.90;;;;;;2603131;54;20929;31
2022/10/03 08:12:47;;;;;;;6.28;2.33;;;11.20;99.90;;;;;;2603056;54;20934;31
2022/10/03 08:15:26;;;;;;;7.50;1.65;;;11.30;99.90;;;;;;2603209;54;20789;31
2022/10/03 08:18:16;;;;;;;5.07;1.70;;;11.40;99.90;;;;;;2602938;54;19989;31
2022/10/03 08:20:53;;;;;;;3.90;1.45;;;11.50;99.90;;;;;;2603467;54;20730;31
2022/10/03 08:24:03;;;;;;;8.45;1.70;;;11.80;99.90;;;;;;2603133;54;20030;31
2022/10/03 08:27:11;;;;;;;6.47;2.25;;;12.00;99.90;;;;;;2602995;54;20042;31
2022/10/03 08:30:00;;;;;;;5.90;1.52;;;12.30;99.90;;;;;;2603695;47;20480;31
2022/10/03 08:32:51;;;;;;;4.95;1.40;;;12.40;99.90;;;;;;2603403;54;20023;31
2022/10/03 08:35:34;;;;;;;8.30;1.05;;;12.30;99.90;;;;;;2602995;54;19935;31
2022/10/03 08:38:38;;;;;;;5.50;1.15;;;12.20;99.90;;;;;;2602595;54;20086;31
2022/10/03 08:41:58;;;;;;;4.82;1.50;;;12.10;99.90;;;;;;2602891;54;20159;31
2022/10/03 08:45:14;;;;;;;4.65;1.17;;;12.00;99.90;;;;;;2603708;47;20906;31
2022/10/03 08:48:18;;;;;;;3.22;0.80;;;11.90;99.90;;;;;;2602817;54;20896;31
2022/10/03 08:51:04;;;;;;;5.53;1.02;;;11.90;99.90;;;;;;2602899;54;20967;31
2022/10/03 08:54:23;;;;;;;6.65;1.25;;;11.90;99.90;;;;;;2621780;47;20088;31
2022/10/03 08:57:07;;;;;;;3.75;1.10;;;11.90;99.90;;;;;;2603720;54;20473;31
2022/10/03 09:00:04;;;;;;;5.82;1.08;;;11.90;99.90;;;;;;2603499;54;20117;31
2022/10/03 09:02:53;;;;;;;4.38;1.48;;;11.90;99.90;;;;;;2603602;54;20859;31
2022/10/03 09:06:12;;;;;;;7.75;1.20;;;11.90;99.90;;;;;;2603776;54;20143;31
2022/10/03 09:08:45;;;;;;;6.38;1.40;;;12.00;99.90;;;;;;2622366;46;20038;31
2022/10/03 09:11:39;;;;;;;8.80;1.30;;;12.00;99.90;;;;;;2702445;39;20443;31
2022/10/03 09:14:13;;;;;;;7.55;1.35;;;12.10;99.90;;;;;;2603561;54;20869;31
2022/10/03 09:17:06;;;;;;;4.85;1.30;;;12.20;99.90;;;;;;2603578;54;20812;31
2022/10/03 09:19:38;;;;;;;4.93;1.08;;;12.20;99.90;;;;;;2609007;46;20041;31
2022/10/03 09:22:33;;;;;;;3.67;1.20;;;12.40;99.90;;;;;;2603959;54;20035;31
2022/10/03 09:25:24;;;;;;;6.65;1.55;;;12.50;99.90;;;;;;2603547;54;20053;31
2022/10/03 09:28:25;;;;;;;6.30;1.40;;;12.60;99.90;;;;;;2603499;54;20636;31
2022/10/03 09:31:03;;;;;;;5.63;1.20;;;12.60;99.90;;;;;;2603976;54;20027;31
2022/10/03 09:33:59;;;;;;;8.50;1.45;;;12.60;99.90;;;;;;2603524;54;20153;31
2022/10/03 09:36:58;;;;;;;5.50;0.90;;;12.60;99.90;;;;;;2603899;54;20816;31
2022/10/03 09:40:01;;;;;;;4.83;1.53;;;12.60;99.90;;;;;;2603420;54;20044;31
2022/10/03 09:42:55;;;;;;;7.05;1.17;;;12.60;99.90;;;;;;2603620;54;20328;31
2022/10/03 09:45:37;;;;;;;5.25;1.08;;;12.60;99.90;;;;;;2604566;46;20839;31
2022/10/03 09:48:34;;;;;;;6.38;1.23;;;12.60;99.90;;;;;;2605525;54;20812;31
2022/10/03 09:51:25;;;;;;;7.53;1.58;;;12.60;99.90;;;;;;2603695;54;20882;31
2022/10/03 09:56:59;;;;;;;5.70;1.10;;;12.70;99.90;;;;;;2603489;54;20027;31
2022/10/03 09:59:51;;;;;;;7.25;1.58;;;12.80;99.90;;;;;;2604556;46;20239;31
2022/10/03 10:02:43;;;;;;;6.73;1.40;;;12.70;99.90;;;;;;2603608;54;20600;31
2022/10/03 10:08:08;;;;;;;3.92;1.17;;;12.70;99.90;;;;;;2603619;54;20042;31
2022/10/03 10:13:35;;;;;;;10.20;2.97;;;12.70;99.90;;;;;;2612446;46;20019;31
2022/10/03 10:16:52;;;;;;;6.93;1.60;;;12.60;99.90;;;;;;2603603;54;20795;31
2022/10/03 10:19:46;;;;;;;4.75;1.05;;;12.60;99.90;;;;;;2603685;54;20841;31
2022/10/03 10:25:19;;;;;;;6.25;1.40;;;12.50;99.90;;;;;;2603619;54;20025;31
2022/10/03 10:30:33;;;;;;;3.05;1.00;;;12.60;99.90;;;;;;2603398;54;20867;31
2022/10/03 10:33:38;;;;;;;11.73;1.67;;;12.50;99.90;;;;;;2603479;54;20077;31
2022/10/03 10:36:48;;;;;;;7.50;1.67;;;12.50;99.90;;;;;;2603386;54;20089;31
2022/10/03 10:39:36;;;;;;;6.60;1.40;;;12.40;99.90;;;;;;2603448;54;20033;-79
2022/10/03 10:42:29;;;;;;;5.30;1.13;;;12.50;99.90;;;;;;2609825;46;20089;31
2022/10/03 10:45:31;;;;;;;4.25;0.85;;;12.50;99.90;;;;;;2623918;46;20034;31
2022/10/03 10:48:36;;;;;;;8.65;1.40;;;12.60;99.90;;;;;;2604196;46;20025;31
2022/10/03 10:51:42;;;;;;;6.55;1.20;;;12.60;99.90;;;;;;2622128;46;20027;31
2022/10/03 10:54:16;;;;;;;6.05;1.00;;;12.70;99.90;;;;;;2603203;54;20038;31
2022/10/03 10:57:17;;;;;;;6.38;1.05;;;12.70;99.90;;;;;;2605795;46;20031;31
2022/10/03 11:00:18;;;;;;;6.60;1.20;;;12.70;99.90;;;;;;2603263;54;20106;31
2022/10/03 11:03:24;;;;;;;5.63;1.27;;;12.70;99.90;;;;;;2609667;54;20931;31
2022/10/03 11:06:26;;;;;;;5.20;0.98;;;12.70;99.90;;;;;;2603280;54;20046;31
2022/10/03 11:12:02;;;;;;;6.07;1.27;;;12.70;99.90;;;;;;2603272;54;20027;31
2022/10/03 11:14:56;;;;;;;3.35;1.10;;;12.70;99.90;;;;;;2603210;54;20109;31
2022/10/03 11:17:55;;;;;;;5.97;2.10;;;12.80;99.90;;;;;;2609618;54;20027;31
2022/10/03 11:21:03;;;;;;;5.47;1.27;;;12.80;99.90;;;;;;2603378;54;20099;31
2022/10/03 11:24:08;;;;;;;5.90;1.30;;;12.90;99.90;;;;;;2603338;54;20019;31
2022/10/03 11:27:10;;;;;;;13.98;2.33;;;13.00;99.90;;;;;;2604231;46;20034;31
2022/10/03 11:29:43;;;;;;;11.00;1.95;;;13.00;99.90;;;;;;2602940;54;20019;31
2022/10/03 11:32:54;;;;;;;7.82;1.50;;;13.10;99.90;;;;;;2603552;54;20897;31
2022/10/03 11:35:57;;;;;;;6.60;1.30;;;13.20;99.90;;;;;;2603032;54;20019;31
2022/10/03 11:38:31;;;;;;;5.30;0.90;;;13.20;99.90;;;;;;2603406;54;20786;31
2022/10/03 11:41:10;;;;;;;4.90;1.70;;;13.10;99.90;;;;;;2622196;46;20915;31
2022/10/03 11:44:11;;;;;;;6.25;1.02;;;13.00;99.90;;;;;;2603447;54;20022;31
2022/10/03 11:46:57;;;;;;;5.07;1.35;;;12.90;99.90;;;;;;2604146;46;20092;31
2022/10/03 11:49:54;;;;;;;;;;;12.70;99.90;;;;;;2603443;54;20134;31
2022/10/03 11:52:36;;;;;;;3.80;1.00;;;12.70;99.90;;;;;;2603317;54;19982;31
2022/10/03 11:55:24;;;;;;;4.60;1.23;;;12.70;99.90;;;;;;2603376;54;20275;31
2022/10/03 11:58:08;;;;;;;3.22;1.23;;;12.50;99.90;;;;;;2603249;54;20859;31
2022/10/03 12:00:44;;;;;;;5.97;1.48;;;12.50;99.90;;;;;;2603129;54;20857;31
2022/10/03 12:03:20;;;;;;;5.93;1.30;;;12.40;99.90;;;;;;2621582;46;20037;31
2022/10/03 12:08:53;;;;;;;;;;;12.50;99.90;;;;;;2702111;39;20574;31
2022/10/03 12:08:58;;;;;;;5.68;1.27;;;12.40;99.90;;;;;;2701649;39;20463;31
2022/10/03 12:11:35;;;;;;;4.70;1.40;;;12.40;99.90;;;;;;2603036;54;20048;31
2022/10/03 12:14:17;;;;;;;5.80;1.67;;;12.40;99.90;;;;;;2603141;54;20046;31
2022/10/03 12:17:04;;;;;;;6.68;1.50;;;12.40;99.90;;;;;;2603180;54;20960;31
2022/10/03 12:19:44;;;;;;;7.30;1.80;;;12.40;99.90;;;;;;2621175;46;20072;31
2022/10/03 12:22:40;;;;;;;10.20;2.15;;;12.50;99.90;;;;;;2603181;54;20894;31
2022/10/03 12:25:22;;;;;;;7.88;1.48;;;12.60;99.90;;;;;;2603033;54;20932;31
2022/10/03 12:28:00;;;;;;;3.50;1.38;;;12.60;99.90;;;;;;2603165;54;20519;31
2022/10/03 12:30:39;;;;;;;12.65;1.65;;;12.60;99.90;;;;;;2608179;47;20811;31
2022/10/03 12:33:28;;;;;;;7.20;1.70;;;12.60;99.90;;;;;;2603099;54;20029;31
2022/10/03 12:36:07;;;;;;;8.43;2.85;;;12.60;99.90;;;;;;2603119;54;20934;31
2022/10/03 12:38:49;;;;;;;8.95;1.70;;;12.70;99.90;;;;;;2603028;54;20023;31
2022/10/03 12:41:42;;;;;;;3.53;1.20;;;12.70;99.90;;;;;;2621677;47;20035;31
2022/10/03 12:44:23;;;;;;;4.50;1.00;;;12.80;99.90;;;;;;2603219;54;20034;31
2022/10/03 12:47:03;;;;;;;4.20;1.00;;;13.00;99.90;;;;;;2603136;54;20061;31
2022/10/03 12:49:45;;;;;;;5.30;1.40;;;13.10;99.90;;;;;;2603063;54;20963;31
2022/10/03 12:52:22;;;;;;;5.90;1.40;;;13.30;99.90;;;;;;2603068;54;20042;31
2022/10/03 12:55:12;;;;;;;3.83;1.13;;;13.30;99.90;;;;;;2602896;54;20989;31
2022/10/03 12:58:01;;;;;;;7.77;1.17;;;13.40;99.90;;;;;;2608179;47;20026;31
2022/10/03 13:00:37;;;;;;;3.25;0.80;;;13.50;99.90;;;;;;2609514;39;21114;31
2022/10/03 13:03:24;;;;;;;4.72;1.50;;;13.40;99.90;;;;;;2602816;54;20034;31
2022/10/03 13:06:21;;;;;;;4.30;1.00;;;13.30;99.90;;;;;;2602606;54;20027;31
2022/10/03 13:12:03;;;;;;;4.13;1.13;;;13.30;99.90;;;;;;2602845;54;20113;31
2022/10/03 13:15:05;;;;;;;4.38;1.20;;;13.40;99.90;;;;;;2602763;54;20921;31
2022/10/03 13:17:37;;;;;;;6.00;1.30;;;13.30;99.90;;;;;;2603171;54;20049;31
2022/10/03 13:20:15;;;;;;;6.05;1.58;;;13.40;99.90;;;;;;2602810;54;20204;31
2022/10/03 13:22:53;;;;;;;9.02;1.92;;;13.40;99.90;;;;;;2621501;47;20917;31
2022/10/03 13:25:32;;;;;;;8.93;1.10;;;13.50;99.90;;;;;;2604211;47;20069;31
2022/10/03 13:28:10;;;;;;;6.50;1.10;;;13.50;99.90;;;;;;2602961;54;20034;31
2022/10/03 13:30:49;;;;;;;11.38;1.20;;;13.50;99.90;;;;;;2602669;54;20030;31
2022/10/03 13:33:24;;;;;;;6.15;0.80;;;13.40;99.90;;;;;;2603034;54;20032;31
2022/10/03 13:36:12;;;;;;;4.07;0.82;;;13.40;99.90;;;;;;2602921;54;20177;31
2022/10/03 13:39:01;;;;;;;6.22;1.55;;;13.50;99.90;;;;;;2602860;54;20784;31
2022/10/03 13:42:07;;;;;;;8.27;1.60;;;13.60;99.90;;;;;;2603518;54;20053;31
2022/10/03 13:44:44;;;;;;;5.45;1.50;;;13.50;99.90;;;;;;2720215;39;20466;31
2022/10/03 13:47:46;;;;;;;6.25;1.05;;;13.60;99.90;;;;;;2603540;54;20832;31
2022/10/03 13:50:22;;;;;;;7.57;1.35;;;13.60;99.90;;;;;;2603809;54;20053;31
2022/10/03 13:52:59;;;;;;;7.90;1.80;;;13.70;99.90;;;;;;2603571;54;20023;31
2022/10/03 13:55:41;;;;;;;4.82;1.25;;;13.50;99.90;;;;;;2603610;54;20019;31
2022/10/03 13:58:39;;;;;;;5.10;1.50;;;13.60;99.90;;;;;;2603658;54;20826;31
2022/10/03 14:01:33;;;;;;;7.20;1.10;;;13.60;99.90;;;;;;2603603;54;20636;31
2022/10/03 14:04:22;;;;;;;7.25;1.30;;;13.50;99.90;;;;;;2603645;54;20027;31
2022/10/03 14:07:00;;;;;;;8.15;1.75;;;13.50;99.90;;;;;;2603722;54;20804;31
2022/10/03 14:09:54;;;;;;;7.30;1.65;;;13.50;99.90;;;;;;2603703;54;20987;31
2022/10/03 14:12:33;;;;;;;7.43;1.70;;;13.50;99.90;;;;;;2603504;54;20813;31
2022/10/03 14:15:35;;;;;;;7.00;1.50;;;13.50;99.90;;;;;;2603735;54;20050;31
2022/10/03 14:18:24;;;;;;;7.05;1.55;;;13.40;99.90;;;;;;2615692;46;20034;31
2022/10/03 14:21:32;;;;;;;7.25;1.10;;;13.30;99.90;;;;;;2603604;54;20895;31
2022/10/03 14:24:12;;;;;;;5.25;1.40;;;13.30;99.90;;;;;;2603422;54;20081;31
2022/10/03 14:26:50;;;;;;;10.30;1.40;;;13.20;99.90;;;;;;2603478;54;20100;31
2022/10/03 14:29:28;;;;;;;4.20;1.10;;;13.10;99.90;;;;;;2603552;54;20053;31
2022/10/03 14:32:05;;;;;;;6.70;1.25;;;13.10;99.90;;;;;;2603429;54;20038;31
2022/10/03 14:35:02;;;;;;;6.82;1.20;;;13.10;99.90;;;;;;2603513;54;20053;31
2022/10/03 14:37:42;;;;;;;6.60;2.10;;;13.10;99.90;;;;;;2603605;54;20815;31
2022/10/03 14:40:19;;;;;;;7.80;1.20;;;13.10;99.90;;;;;;2603407;54;20022;31
2022/10/03 14:43:13;;;;;;;7.00;1.15;;;13.10;99.90;;;;;;2604842;46;19941;31
2022/10/03 14:45:50;;;;;;;7.72;1.20;;;13.10;99.90;;;;;;2621908;46;20027;31
2022/10/03 14:48:26;;;;;;;2.53;0.98;;;13.00;99.90;;;;;;2608056;46;20800;31
2022/10/03 14:51:04;;;;;;;4.57;1.07;;;13.10;99.90;;;;;;2603952;46;20822;31
2022/10/03 14:53:43;;;;;;;9.03;1.60;;;13.10;99.90;;;;;;2604183;46;19941;31
2022/10/03 14:56:17;;;;;;;9.38;1.25;;;13.10;99.90;;;;;;2603028;54;20049;31
2022/10/03 14:58:53;;;;;;;7.17;1.20;;;13.10;99.90;;;;;;2603290;54;20008;31
2022/10/03 15:01:28;;;;;;;7.72;1.30;;;13.10;99.90;;;;;;2603173;54;20038;31
2022/10/03 15:04:08;;;;;;;8.85;1.00;;;13.10;99.90;;;;;;2622175;46;20863;31
2022/10/03 15:06:56;;;;;;;4.50;1.20;;;13.10;99.90;;;;;;2603228;54;20027;31
2022/10/03 15:09:45;;;;;;;4.88;1.33;;;13.10;99.90;;;;;;2603368;54;20054;31
2022/10/03 15:12:23;;;;;;;6.70;1.70;;;13.10;99.90;;;;;;2603592;54;20037;31
2022/10/03 15:14:59;;;;;;;8.25;1.65;;;13.20;99.90;;;;;;2603594;54;20906;31
2022/10/03 15:17:35;;;;;;;5.90;1.00;;;13.20;99.90;;;;;;2603358;54;20031;31
2022/10/03 15:20:11;;;;;;;5.15;1.60;;;13.20;99.90;;;;;;2603154;54;20046;31
2022/10/03 15:22:49;;;;;;;7.75;1.40;;;13.20;99.90;;;;;;2604290;46;20049;31